sensor_id;sensor_type;location;lat;lon;timestamp;temperature;humidity
18541;DHT22;9400;50.924;5.328;2023-03-01T00:01:39;1.30;99.90
18541;DHT22;9400;50.924;5.328;2023-03-01T00:04:22;1.30;99.90
18541;DHT22;9400;50.924;5.328;2023-03-01T00:06:50;1.30;99.90
18541;DHT22;9400;50.924;5.328;2023-03-01T00:09:17;1.30;99.90
18541;DHT22;9400;50.924;5.328;2023-03-01T00:11:46;1.30;99.90
18541;DHT22;9400;50.924;5.328;2023-03-01T00:14:13;1.40;99.90
18541;DHT22;9400;50.924;5.328;2023-03-01T00:16:43;1.30;99.90
18541;DHT22;9400;50.924;5.328;2023-03-01T00:19:13;1.20;99.90
18541;DHT22;9400;50.924;5.328;2023-03-01T00:21:42;1.10;99.90
18541;DHT22;9400;50.924;5.328;2023-03-01T00:24:10;1.20;99.90
18541;DHT22;9400;50.924;5.328;2023-03-01T00:26:38;1.20;99.90
18541;DHT22;9400;50.924;5.328;2023-03-01T00:29:06;1.10;99.90
18541;DHT22;9400;50.924;5.328;2023-03-01T00:31:33;1.10;99.90
18541;DHT22;9400;50.924;5.328;2023-03-01T00:34:04;1.10;99.90
18541;DHT22;9400;50.924;5.328;2023-03-01T00:36:33;1.10;99.90
18541;DHT22;9400;50.924;5.328;2023-03-01T00:39:04;1.10;99.90
18541;DHT22;9400;50.924;5.328;2023-03-01T00:41:33;1.00;99.90
18541;DHT22;9400;50.924;5.328;2023-03-01T00:44:01;1.00;99.90
18541;DHT22;9400;50.924;5.328;2023-03-01T00:46:29;1.00;99.90
18541;DHT22;9400;50.924;5.328;2023-03-01T00:48:57;1.00;99.90
18541;DHT22;9400;50.924;5.328;2023-03-01T00:51:28;1.00;99.90
18541;DHT22;9400;50.924;5.328;2023-03-01T00:54:00;1.00;99.90
18541;DHT22;9400;50.924;5.328;2023-03-01T00:56:30;0.90;99.90
18541;DHT22;9400;50.924;5.328;2023-03-01T00:58:58;0.90;99.90
18541;DHT22;9400;50.924;5.328;2023-03-01T01:01:27;0.80;99.90
18541;DHT22;9400;50.924;5.328;2023-03-01T01:03:58;0.80;99.90
18541;DHT22;9400;50.924;5.328;2023-03-01T01:06:28;0.90;99.90
18541;DHT22;9400;50.924;5.328;2023-03-01T01:08:56;0.90;99.90
18541;DHT22;9400;50.924;5.328;2023-03-01T01:11:26;0.80;99.90
18541;DHT22;9400;50.924;5.328;2023-03-01T01:13:56;0.90;99.90
18541;DHT22;9400;50.924;5.328;2023-03-01T01:16:26;0.80;99.90
18541;DHT22;9400;50.924;5.328;2023-03-01T01:18:55;0.80;99.90
18541;DHT22;9400;50.924;5.328;2023-03-01T01:21:24;0.80;99.90
18541;DHT22;9400;50.924;5.328;2023-03-01T01:23:51;0.70;99.90
18541;DHT22;9400;50.924;5.328;2023-03-01T01:26:20;0.70;99.90
18541;DHT22;9400;50.924;5.328;2023-03-01T01:28:48;0.60;99.90
18541;DHT22;9400;50.924;5.328;2023-03-01T01:31:22;0.60;99.90
18541;DHT22;9400;50.924;5.328;2023-03-01T01:33:50;0.60;99.90
18541;DHT22;9400;50.924;5.328;2023-03-01T01:36:18;0.60;99.90
18541;DHT22;9400;50.924;5.328;2023-03-01T01:38:46;0.60;99.90
18541;DHT22;9400;50.924;5.328;2023-03-01T01:41:14;0.60;99.90
18541;DHT22;9400;50.924;5.328;2023-03-01T01:43:43;0.60;99.90
18541;DHT22;9400;50.924;5.328;2023-03-01T01:46:19;0.50;99.90
18541;DHT22;9400;50.924;5.328;2023-03-01T01:48:54;0.60;99.90
18541;DHT22;9400;50.924;5.328;2023-03-01T01:51:25;0.60;99.90
18541;DHT22;9400;50.924;5.328;2023-03-01T01:53:58;0.50;99.90
18541;DHT22;9400;50.924;5.328;2023-03-01T01:56:30;0.50;99.90
18541;DHT22;9400;50.924;5.328;2023-03-01T01:58:57;0.40;99.90
18541;DHT22;9400;50.924;5.328;2023-03-01T02:01:28;0.40;99.90
18541;DHT22;9400;50.924;5.328;2023-03-01T02:03:57;0.40;99.90
18541;DHT22;9400;50.924;5.328;2023-03-01T02:06:29;0.40;99.90
18541;DHT22;9400;50.924;5.328;2023-03-01T02:09:00;0.30;99.90
18541;DHT22;9400;50.924;5.328;2023-03-01T02:11:30;0.30;99.90
18541;DHT22;9400;50.924;5.328;2023-03-01T02:13:58;0.30;99.90
18541;DHT22;9400;50.924;5.328;2023-03-01T02:16:26;0.30;99.90
18541;DHT22;9400;50.924;5.328;2023-03-01T02:18:57;0.30;99.90
18541;DHT22;9400;50.924;5.328;2023-03-01T02:21:33;0.30;99.90
18541;DHT22;9400;50.924;5.328;2023-03-01T02:24:06;0.20;99.90
18541;DHT22;9400;50.924;5.328;2023-03-01T02:26:42;0.20;99.90
18541;DHT22;9400;50.924;5.328;2023-03-01T02:29:14;0.20;99.90
18541;DHT22;9400;50.924;5.328;2023-03-01T02:31:42;0.20;99.90
18541;DHT22;9400;50.924;5.328;2023-03-01T02:34:10;0.20;99.90
18541;DHT22;9400;50.924;5.328;2023-03-01T02:36:40;0.20;99.90
18541;DHT22;9400;50.924;5.328;2023-03-01T02:39:12;0.20;99.90
18541;DHT22;9400;50.924;5.328;2023-03-01T02:41:47;0.20;99.90
18541;DHT22;9400;50.924;5.328;2023-03-01T02:44:17;0.10;99.90
18541;DHT22;9400;50.924;5.328;2023-03-01T02:46:47;0.10;99.90
18541;DHT22;9400;50.924;5.328;2023-03-01T02:49:21;0.10;99.90
18541;DHT22;9400;50.924;5.328;2023-03-01T02:52:06;0.10;99.90
18541;DHT22;9400;50.924;5.328;2023-03-01T02:54:40;0.00;99.90
18541;DHT22;9400;50.924;5.328;2023-03-01T02:57:09;0.10;99.90
18541;DHT22;9400;50.924;5.328;2023-03-01T02:59:39;0.10;99.90
18541;DHT22;9400;50.924;5.328;2023-03-01T03:02:18;0.10;99.90
18541;DHT22;9400;50.924;5.328;2023-03-01T03:05:05;0.00;99.90
18541;DHT22;9400;50.924;5.328;2023-03-01T03:07:35;0.00;99.90
18541;DHT22;9400;50.924;5.328;2023-03-01T03:10:03;-0.10;99.90
18541;DHT22;9400;50.924;5.328;2023-03-01T03:12:31;-0.10;99.90
18541;DHT22;9400;50.924;5.328;2023-03-01T03:15:00;-0.10;99.90
18541;DHT22;9400;50.924;5.328;2023-03-01T03:17:34;-0.20;99.90
18541;DHT22;9400;50.924;5.328;2023-03-01T03:20:03;-0.30;99.90
18541;DHT22;9400;50.924;5.328;2023-03-01T03:22:31;-0.30;99.90
18541;DHT22;9400;50.924;5.328;2023-03-01T03:25:00;-0.30;99.90
18541;DHT22;9400;50.924;5.328;2023-03-01T03:27:28;-0.30;99.90
18541;DHT22;9400;50.924;5.328;2023-03-01T03:29:57;-0.30;99.90
18541;DHT22;9400;50.924;5.328;2023-03-01T03:32:30;-0.30;99.90
18541;DHT22;9400;50.924;5.328;2023-03-01T03:34:57;-0.30;99.90
18541;DHT22;9400;50.924;5.328;2023-03-01T03:37:25;-0.40;99.90
18541;DHT22;9400;50.924;5.328;2023-03-01T03:40:11;-0.40;99.90
18541;DHT22;9400;50.924;5.328;2023-03-01T03:42:41;-0.40;99.90
18541;DHT22;9400;50.924;5.328;2023-03-01T03:45:08;-0.40;99.90
18541;DHT22;9400;50.924;5.328;2023-03-01T03:47:37;-0.50;99.90
18541;DHT22;9400;50.924;5.328;2023-03-01T03:50:06;-0.50;99.90
18541;DHT22;9400;50.924;5.328;2023-03-01T03:52:33;-0.50;99.90
18541;DHT22;9400;50.924;5.328;2023-03-01T03:55:01;-0.50;99.90
18541;DHT22;9400;50.924;5.328;2023-03-01T03:57:29;-0.40;99.90
18541;DHT22;9400;50.924;5.328;2023-03-01T03:59:56;-0.40;99.90
18541;DHT22;9400;50.924;5.328;2023-03-01T04:02:27;-0.40;99.90
18541;DHT22;9400;50.924;5.328;2023-03-01T04:04:56;-0.50;99.90
18541;DHT22;9400;50.924;5.328;2023-03-01T04:07:23;-0.40;99.90
18541;DHT22;9400;50.924;5.328;2023-03-01T04:09:51;-0.50;99.90
18541;DHT22;9400;50.924;5.328;2023-03-01T04:12:18;-0.50;99.90
18541;DHT22;9400;50.924;5.328;2023-03-01T04:14:49;-0.50;99.90
18541;DHT22;9400;50.924;5.328;2023-03-01T04:17:16;-0.50;99.90
18541;DHT22;9400;50.924;5.328;2023-03-01T04:19:44;-0.60;99.90
18541;DHT22;9400;50.924;5.328;2023-03-01T04:22:16;-0.60;99.90
18541;DHT22;9400;50.924;5.328;2023-03-01T04:24:50;-0.60;99.90
18541;DHT22;9400;50.924;5.328;2023-03-01T04:27:18;-0.50;99.90
18541;DHT22;9400;50.924;5.328;2023-03-01T04:29:46;-0.70;99.90
18541;DHT22;9400;50.924;5.328;2023-03-01T04:32:13;-0.70;99.90
18541;DHT22;9400;50.924;5.328;2023-03-01T04:34:42;-0.60;99.90
18541;DHT22;9400;50.924;5.328;2023-03-01T04:37:09;-0.70;99.90
18541;DHT22;9400;50.924;5.328;2023-03-01T04:39:38;-0.80;99.90
18541;DHT22;9400;50.924;5.328;2023-03-01T04:42:11;-0.80;99.90
18541;DHT22;9400;50.924;5.328;2023-03-01T04:44:39;-0.80;99.90
18541;DHT22;9400;50.924;5.328;2023-03-01T04:47:06;-0.90;99.90
18541;DHT22;9400;50.924;5.328;2023-03-01T04:49:34;-0.90;99.90
18541;DHT22;9400;50.924;5.328;2023-03-01T04:52:03;-0.90;99.90
18541;DHT22;9400;50.924;5.328;2023-03-01T04:54:32;-0.90;99.90
18541;DHT22;9400;50.924;5.328;2023-03-01T04:57:02;-0.90;99.90
18541;DHT22;9400;50.924;5.328;2023-03-01T04:59:30;-1.00;99.90
18541;DHT22;9400;50.924;5.328;2023-03-01T05:01:58;-1.00;99.90
18541;DHT22;9400;50.924;5.328;2023-03-01T05:04:26;-1.00;99.90
18541;DHT22;9400;50.924;5.328;2023-03-01T05:06:54;-1.00;99.90
18541;DHT22;9400;50.924;5.328;2023-03-01T05:09:24;-0.90;99.90
18541;DHT22;9400;50.924;5.328;2023-03-01T05:11:52;-1.00;99.90
18541;DHT22;9400;50.924;5.328;2023-03-01T05:14:21;-0.90;99.90
18541;DHT22;9400;50.924;5.328;2023-03-01T05:16:49;-1.00;99.90
18541;DHT22;9400;50.924;5.328;2023-03-01T05:19:16;-1.00;99.90
18541;DHT22;9400;50.924;5.328;2023-03-01T05:21:49;-1.00;99.90
18541;DHT22;9400;50.924;5.328;2023-03-01T05:24:32;-1.10;99.90
18541;DHT22;9400;50.924;5.328;2023-03-01T05:27:00;-1.10;99.90
18541;DHT22;9400;50.924;5.328;2023-03-01T05:29:31;-1.10;99.90
18541;DHT22;9400;50.924;5.328;2023-03-01T05:32:01;-1.20;99.90
18541;DHT22;9400;50.924;5.328;2023-03-01T05:34:31;-1.10;99.90
18541;DHT22;9400;50.924;5.328;2023-03-01T05:36:59;-1.10;99.90
18541;DHT22;9400;50.924;5.328;2023-03-01T05:39:28;-1.10;99.90
18541;DHT22;9400;50.924;5.328;2023-03-01T05:41:59;-1.20;99.90
18541;DHT22;9400;50.924;5.328;2023-03-01T05:44:30;-1.20;99.90
18541;DHT22;9400;50.924;5.328;2023-03-01T05:46:57;-1.20;99.90
18541;DHT22;9400;50.924;5.328;2023-03-01T05:49:25;-1.20;99.90
18541;DHT22;9400;50.924;5.328;2023-03-01T05:51:53;-1.20;99.90
18541;DHT22;9400;50.924;5.328;2023-03-01T05:54:22;-1.20;99.90
18541;DHT22;9400;50.924;5.328;2023-03-01T05:56:50;-1.20;99.90
18541;DHT22;9400;50.924;5.328;2023-03-01T05:59:17;-1.30;99.90
18541;DHT22;9400;50.924;5.328;2023-03-01T06:01:47;-1.30;99.90
18541;DHT22;9400;50.924;5.328;2023-03-01T06:04:14;-1.30;99.90
18541;DHT22;9400;50.924;5.328;2023-03-01T06:06:41;-1.30;99.90
18541;DHT22;9400;50.924;5.328;2023-03-01T06:09:09;-1.30;99.90
18541;DHT22;9400;50.924;5.328;2023-03-01T06:11:37;-1.30;99.90
18541;DHT22;9400;50.924;5.328;2023-03-01T06:14:07;-1.30;99.90
18541;DHT22;9400;50.924;5.328;2023-03-01T06:16:36;-1.30;99.90
18541;DHT22;9400;50.924;5.328;2023-03-01T06:19:05;-1.40;99.90
18541;DHT22;9400;50.924;5.328;2023-03-01T06:21:33;-1.30;99.90
18541;DHT22;9400;50.924;5.328;2023-03-01T06:24:01;-1.40;99.90
18541;DHT22;9400;50.924;5.328;2023-03-01T06:26:28;-1.50;99.90
18541;DHT22;9400;50.924;5.328;2023-03-01T06:28:57;-1.50;99.90
18541;DHT22;9400;50.924;5.328;2023-03-01T06:31:25;-1.40;99.90
18541;DHT22;9400;50.924;5.328;2023-03-01T06:33:53;-1.50;99.90
18541;DHT22;9400;50.924;5.328;2023-03-01T06:36:21;-1.50;99.90
18541;DHT22;9400;50.924;5.328;2023-03-01T06:38:49;-1.50;99.90
18541;DHT22;9400;50.924;5.328;2023-03-01T06:41:19;-1.40;99.90
18541;DHT22;9400;50.924;5.328;2023-03-01T06:43:47;-1.40;99.90
18541;DHT22;9400;50.924;5.328;2023-03-01T06:46:14;-1.30;99.90
18541;DHT22;9400;50.924;5.328;2023-03-01T06:48:42;-1.40;99.90
18541;DHT22;9400;50.924;5.328;2023-03-01T06:51:09;-1.40;99.90
18541;DHT22;9400;50.924;5.328;2023-03-01T06:53:38;-1.40;99.90
18541;DHT22;9400;50.924;5.328;2023-03-01T06:56:06;-1.30;99.90
18541;DHT22;9400;50.924;5.328;2023-03-01T06:58:35;-1.20;99.90
18541;DHT22;9400;50.924;5.328;2023-03-01T07:01:06;-1.20;99.90
18541;DHT22;9400;50.924;5.328;2023-03-01T07:03:34;-1.10;99.90
18541;DHT22;9400;50.924;5.328;2023-03-01T07:06:02;-1.10;99.90
18541;DHT22;9400;50.924;5.328;2023-03-01T07:08:29;-1.20;99.90
18541;DHT22;9400;50.924;5.328;2023-03-01T07:10:58;-1.00;99.90
18541;DHT22;9400;50.924;5.328;2023-03-01T07:13:28;-1.00;99.90
18541;DHT22;9400;50.924;5.328;2023-03-01T07:15:55;-0.90;99.90
18541;DHT22;9400;50.924;5.328;2023-03-01T07:18:23;-0.90;99.90
18541;DHT22;9400;50.924;5.328;2023-03-01T07:20:51;-0.90;99.90
18541;DHT22;9400;50.924;5.328;2023-03-01T07:23:19;-0.80;99.90
18541;DHT22;9400;50.924;5.328;2023-03-01T07:25:52;-0.80;99.90
18541;DHT22;9400;50.924;5.328;2023-03-01T07:28:22;-0.90;99.90
18541;DHT22;9400;50.924;5.328;2023-03-01T07:30:51;-0.80;99.90
18541;DHT22;9400;50.924;5.328;2023-03-01T07:33:18;-0.60;99.90
18541;DHT22;9400;50.924;5.328;2023-03-01T07:35:46;-0.60;99.90
18541;DHT22;9400;50.924;5.328;2023-03-01T07:38:13;-0.60;99.90
18541;DHT22;9400;50.924;5.328;2023-03-01T07:40:40;-0.60;99.90
18541;DHT22;9400;50.924;5.328;2023-03-01T07:43:11;-0.60;99.90
18541;DHT22;9400;50.924;5.328;2023-03-01T07:45:40;-0.50;99.90
18541;DHT22;9400;50.924;5.328;2023-03-01T07:48:07;-0.50;99.90
18541;DHT22;9400;50.924;5.328;2023-03-01T07:50:35;-0.40;99.90
18541;DHT22;9400;50.924;5.328;2023-03-01T07:53:03;-0.40;99.90
18541;DHT22;9400;50.924;5.328;2023-03-01T07:55:30;-0.30;99.90
18541;DHT22;9400;50.924;5.328;2023-03-01T07:57:58;-0.20;99.90
18541;DHT22;9400;50.924;5.328;2023-03-01T08:00:26;-0.10;99.90
18541;DHT22;9400;50.924;5.328;2023-03-01T08:02:58;-0.10;99.90
18541;DHT22;9400;50.924;5.328;2023-03-01T08:05:25;-0.10;99.90
18541;DHT22;9400;50.924;5.328;2023-03-01T08:07:53;0.10;99.90
18541;DHT22;9400;50.924;5.328;2023-03-01T08:10:21;0.10;99.90
18541;DHT22;9400;50.924;5.328;2023-03-01T08:12:51;0.20;99.90
18541;DHT22;9400;50.924;5.328;2023-03-01T08:15:20;0.40;99.90
18541;DHT22;9400;50.924;5.328;2023-03-01T08:17:49;0.50;99.90
18541;DHT22;9400;50.924;5.328;2023-03-01T08:20:19;0.50;99.90
18541;DHT22;9400;50.924;5.328;2023-03-01T08:22:47;0.70;99.90
18541;DHT22;9400;50.924;5.328;2023-03-01T08:25:14;0.60;99.90
18541;DHT22;9400;50.924;5.328;2023-03-01T08:27:42;0.70;99.90
18541;DHT22;9400;50.924;5.328;2023-03-01T08:30:10;0.70;99.90
18541;DHT22;9400;50.924;5.328;2023-03-01T08:32:39;0.90;99.90
18541;DHT22;9400;50.924;5.328;2023-03-01T08:35:07;1.00;99.90
18541;DHT22;9400;50.924;5.328;2023-03-01T08:37:36;0.90;99.90
18541;DHT22;9400;50.924;5.328;2023-03-01T08:40:06;1.10;99.90
18541;DHT22;9400;50.924;5.328;2023-03-01T08:42:36;1.20;99.90
18541;DHT22;9400;50.924;5.328;2023-03-01T08:45:04;1.40;99.90
18541;DHT22;9400;50.924;5.328;2023-03-01T08:47:32;1.50;99.90
18541;DHT22;9400;50.924;5.328;2023-03-01T08:50:01;1.60;99.90
18541;DHT22;9400;50.924;5.328;2023-03-01T08:52:28;1.50;99.90
18541;DHT22;9400;50.924;5.328;2023-03-01T08:54:57;1.50;99.90
18541;DHT22;9400;50.924;5.328;2023-03-01T08:57:27;1.60;99.90
18541;DHT22;9400;50.924;5.328;2023-03-01T08:59:55;1.60;99.90
18541;DHT22;9400;50.924;5.328;2023-03-01T09:02:22;1.60;99.90
18541;DHT22;9400;50.924;5.328;2023-03-01T09:04:50;1.70;99.90
18541;DHT22;9400;50.924;5.328;2023-03-01T09:07:17;1.60;99.90
18541;DHT22;9400;50.924;5.328;2023-03-01T09:09:45;1.50;99.90
18541;DHT22;9400;50.924;5.328;2023-03-01T09:12:14;1.50;99.90
18541;DHT22;9400;50.924;5.328;2023-03-01T09:14:41;1.50;99.90
18541;DHT22;9400;50.924;5.328;2023-03-01T09:17:09;1.70;99.90
18541;DHT22;9400;50.924;5.328;2023-03-01T09:19:36;1.90;99.90
18541;DHT22;9400;50.924;5.328;2023-03-01T09:22:04;2.00;99.90
18541;DHT22;9400;50.924;5.328;2023-03-01T09:24:32;2.10;99.90
18541;DHT22;9400;50.924;5.328;2023-03-01T09:27:00;2.20;99.90
18541;DHT22;9400;50.924;5.328;2023-03-01T09:29:30;2.20;99.90
18541;DHT22;9400;50.924;5.328;2023-03-01T09:31:58;2.40;99.90
18541;DHT22;9400;50.924;5.328;2023-03-01T09:34:26;2.30;99.90
18541;DHT22;9400;50.924;5.328;2023-03-01T09:36:54;2.40;99.90
18541;DHT22;9400;50.924;5.328;2023-03-01T09:39:22;2.50;99.90
18541;DHT22;9400;50.924;5.328;2023-03-01T09:41:57;2.60;99.90
18541;DHT22;9400;50.924;5.328;2023-03-01T09:44:35;2.60;99.90
18541;DHT22;9400;50.924;5.328;2023-03-01T09:47:10;2.80;99.90
18541;DHT22;9400;50.924;5.328;2023-03-01T09:49:41;2.90;99.90
18541;DHT22;9400;50.924;5.328;2023-03-01T09:52:21;3.20;99.90
18541;DHT22;9400;50.924;5.328;2023-03-01T09:54:54;3.20;99.90
18541;DHT22;9400;50.924;5.328;2023-03-01T09:57:33;3.30;99.90
18541;DHT22;9400;50.924;5.328;2023-03-01T10:00:16;3.40;99.90
18541;DHT22;9400;50.924;5.328;2023-03-01T10:02:49;3.40;99.90
18541;DHT22;9400;50.924;5.328;2023-03-01T10:05:33;3.50;99.90
18541;DHT22;9400;50.924;5.328;2023-03-01T10:08:15;3.60;99.90
18541;DHT22;9400;50.924;5.328;2023-03-01T10:10:47;3.80;99.90
18541;DHT22;9400;50.924;5.328;2023-03-01T10:13:19;3.90;99.90
18541;DHT22;9400;50.924;5.328;2023-03-01T10:15:52;4.00;99.90
18541;DHT22;9400;50.924;5.328;2023-03-01T10:18:25;4.10;99.90
18541;DHT22;9400;50.924;5.328;2023-03-01T10:20:58;3.90;99.90
18541;DHT22;9400;50.924;5.328;2023-03-01T10:23:28;4.00;99.90
18541;DHT22;9400;50.924;5.328;2023-03-01T10:26:08;3.90;99.90
18541;DHT22;9400;50.924;5.328;2023-03-01T10:28:48;4.00;99.90
18541;DHT22;9400;50.924;5.328;2023-03-01T10:31:22;4.20;99.90
18541;DHT22;9400;50.924;5.328;2023-03-01T10:33:54;4.30;99.90
18541;DHT22;9400;50.924;5.328;2023-03-01T10:36:23;4.40;99.90
18541;DHT22;9400;50.924;5.328;2023-03-01T10:38:52;4.40;99.90
18541;DHT22;9400;50.924;5.328;2023-03-01T10:41:21;4.50;99.90
18541;DHT22;9400;50.924;5.328;2023-03-01T10:43:52;4.50;99.90
18541;DHT22;9400;50.924;5.328;2023-03-01T10:46:26;4.60;99.90
18541;DHT22;9400;50.924;5.328;2023-03-01T10:49:16;4.70;99.90
18541;DHT22;9400;50.924;5.328;2023-03-01T10:51:45;4.90;99.90
18541;DHT22;9400;50.924;5.328;2023-03-01T10:54:18;5.10;99.90
18541;DHT22;9400;50.924;5.328;2023-03-01T10:56:49;5.30;99.90
18541;DHT22;9400;50.924;5.328;2023-03-01T10:59:29;5.40;99.90
18541;DHT22;9400;50.924;5.328;2023-03-01T11:02:16;5.30;99.90
18541;DHT22;9400;50.924;5.328;2023-03-01T11:05:00;5.20;99.90
18541;DHT22;9400;50.924;5.328;2023-03-01T11:07:29;5.10;99.90
18541;DHT22;9400;50.924;5.328;2023-03-01T11:09:56;5.40;99.90
18541;DHT22;9400;50.924;5.328;2023-03-01T11:12:24;5.40;99.90
18541;DHT22;9400;50.924;5.328;2023-03-01T11:14:55;5.50;99.90
18541;DHT22;9400;50.924;5.328;2023-03-01T11:17:27;5.70;99.90
18541;DHT22;9400;50.924;5.328;2023-03-01T11:20:23;5.90;99.90
18541;DHT22;9400;50.924;5.328;2023-03-01T11:22:54;6.00;99.90
18541;DHT22;9400;50.924;5.328;2023-03-01T11:25:25;6.10;99.90
18541;DHT22;9400;50.924;5.328;2023-03-01T11:27:55;6.30;99.90
18541;DHT22;9400;50.924;5.328;2023-03-01T11:30:27;6.30;99.90
18541;DHT22;9400;50.924;5.328;2023-03-01T11:33:05;6.50;99.90
18541;DHT22;9400;50.924;5.328;2023-03-01T11:35:41;6.50;99.90
18541;DHT22;9400;50.924;5.328;2023-03-01T11:38:17;6.20;99.90
18541;DHT22;9400;50.924;5.328;2023-03-01T11:40:50;6.20;99.90
18541;DHT22;9400;50.924;5.328;2023-03-01T11:43:25;6.10;99.90
18541;DHT22;9400;50.924;5.328;2023-03-01T11:49:02;6.60;99.90
18541;DHT22;9400;50.924;5.328;2023-03-01T11:51:44;6.80;99.90
18541;DHT22;9400;50.924;5.328;2023-03-01T11:54:26;7.30;99.90
18541;DHT22;9400;50.924;5.328;2023-03-01T11:57:00;7.10;99.90
18541;DHT22;9400;50.924;5.328;2023-03-01T12:02:48;7.90;99.90
18541;DHT22;9400;50.924;5.328;2023-03-01T12:05:46;8.00;99.90
18541;DHT22;9400;50.924;5.328;2023-03-01T12:08:19;8.00;99.90
18541;DHT22;9400;50.924;5.328;2023-03-01T12:10:56;8.30;99.90
18541;DHT22;9400;50.924;5.328;2023-03-01T12:16:37;8.40;99.90
18541;DHT22;9400;50.924;5.328;2023-03-01T12:19:29;8.40;99.90
18541;DHT22;9400;50.924;5.328;2023-03-01T12:22:09;8.30;99.90
18541;DHT22;9400;50.924;5.328;2023-03-01T12:27:56;9.40;99.90
18541;DHT22;9400;50.924;5.328;2023-03-01T12:30:36;9.40;99.90
18541;DHT22;9400;50.924;5.328;2023-03-01T12:33:18;9.60;99.90
18541;DHT22;9400;50.924;5.328;2023-03-01T12:36:17;9.60;99.90
18541;DHT22;9400;50.924;5.328;2023-03-01T12:38:50;9.30;99.90
18541;DHT22;9400;50.924;5.328;2023-03-01T12:41:43;8.90;99.90
18541;DHT22;9400;50.924;5.328;2023-03-01T12:44:35;9.60;99.90
18541;DHT22;9400;50.924;5.328;2023-03-01T12:47:26;10.40;99.90
18541;DHT22;9400;50.924;5.328;2023-03-01T12:49:57;9.80;99.90
18541;DHT22;9400;50.924;5.328;2023-03-01T12:52:35;9.60;99.90
18541;DHT22;9400;50.924;5.328;2023-03-01T12:55:22;9.90;99.90
18541;DHT22;9400;50.924;5.328;2023-03-01T12:58:00;9.90;99.90
18541;DHT22;9400;50.924;5.328;2023-03-01T13:00:35;10.80;99.90
18541;DHT22;9400;50.924;5.328;2023-03-01T13:03:17;11.70;99.90
18541;DHT22;9400;50.924;5.328;2023-03-01T13:05:56;11.30;99.90
18541;DHT22;9400;50.924;5.328;2023-03-01T13:08:31;11.50;99.90
18541;DHT22;9400;50.924;5.328;2023-03-01T13:11:05;10.90;99.90
18541;DHT22;9400;50.924;5.328;2023-03-01T13:13:33;11.30;99.90
18541;DHT22;9400;50.924;5.328;2023-03-01T13:16:27;11.70;99.90
18541;DHT22;9400;50.924;5.328;2023-03-01T13:19:13;12.10;99.90
18541;DHT22;9400;50.924;5.328;2023-03-01T13:21:43;12.20;99.90
18541;DHT22;9400;50.924;5.328;2023-03-01T13:24:29;12.30;99.90
18541;DHT22;9400;50.924;5.328;2023-03-01T13:27:20;13.10;99.90
18541;DHT22;9400;50.924;5.328;2023-03-01T13:29:53;13.50;99.90
18541;DHT22;9400;50.924;5.328;2023-03-01T13:32:22;14.00;99.90
18541;DHT22;9400;50.924;5.328;2023-03-01T13:34:57;14.00;99.90
18541;DHT22;9400;50.924;5.328;2023-03-01T13:37:31;14.70;99.90
18541;DHT22;9400;50.924;5.328;2023-03-01T13:40:03;14.10;99.90
18541;DHT22;9400;50.924;5.328;2023-03-01T13:42:41;13.70;99.90
18541;DHT22;9400;50.924;5.328;2023-03-01T13:45:34;13.10;99.70
18541;DHT22;9400;50.924;5.328;2023-03-01T13:48:09;13.20;99.90
18541;DHT22;9400;50.924;5.328;2023-03-01T13:50:45;13.90;99.90
18541;DHT22;9400;50.924;5.328;2023-03-01T13:53:18;14.80;99.30
18541;DHT22;9400;50.924;5.328;2023-03-01T13:55:48;14.50;98.90
18541;DHT22;9400;50.924;5.328;2023-03-01T13:58:22;14.00;98.10
18541;DHT22;9400;50.924;5.328;2023-03-01T14:00:58;13.60;98.60
18541;DHT22;9400;50.924;5.328;2023-03-01T14:03:28;14.50;98.30
18541;DHT22;9400;50.924;5.328;2023-03-01T14:06:05;15.20;97.90
18541;DHT22;9400;50.924;5.328;2023-03-01T14:08:37;14.20;98.30
18541;DHT22;9400;50.924;5.328;2023-03-01T14:11:35;15.00;98.00
18541;DHT22;9400;50.924;5.328;2023-03-01T14:17:04;15.30;96.80
18541;DHT22;9400;50.924;5.328;2023-03-01T14:19:34;15.80;95.90
18541;DHT22;9400;50.924;5.328;2023-03-01T14:22:13;15.20;95.00
18541;DHT22;9400;50.924;5.328;2023-03-01T14:24:47;15.60;95.50
18541;DHT22;9400;50.924;5.328;2023-03-01T14:27:16;16.80;95.60
18541;DHT22;9400;50.924;5.328;2023-03-01T14:29:54;16.70;94.80
18541;DHT22;9400;50.924;5.328;2023-03-01T14:32:26;17.20;95.40
18541;DHT22;9400;50.924;5.328;2023-03-01T14:34:53;17.80;93.90
18541;DHT22;9400;50.924;5.328;2023-03-01T14:37:25;17.20;93.20
18541;DHT22;9400;50.924;5.328;2023-03-01T14:39:53;18.50;92.80
18541;DHT22;9400;50.924;5.328;2023-03-01T14:42:22;17.60;92.90
18541;DHT22;9400;50.924;5.328;2023-03-01T14:44:54;18.90;93.30
18541;DHT22;9400;50.924;5.328;2023-03-01T14:47:27;18.90;92.10
18541;DHT22;9400;50.924;5.328;2023-03-01T14:49:59;17.00;91.80
18541;DHT22;9400;50.924;5.328;2023-03-01T14:52:33;16.60;92.00
18541;DHT22;9400;50.924;5.328;2023-03-01T14:55:04;16.60;91.50
18541;DHT22;9400;50.924;5.328;2023-03-01T14:57:32;16.70;91.20
18541;DHT22;9400;50.924;5.328;2023-03-01T15:00:06;16.90;91.40
18541;DHT22;9400;50.924;5.328;2023-03-01T15:02:35;17.40;91.80
18541;DHT22;9400;50.924;5.328;2023-03-01T15:05:06;17.40;91.20
18541;DHT22;9400;50.924;5.328;2023-03-01T15:07:38;18.10;90.90
18541;DHT22;9400;50.924;5.328;2023-03-01T15:10:16;18.60;90.80
18541;DHT22;9400;50.924;5.328;2023-03-01T15:12:44;17.00;90.30
18541;DHT22;9400;50.924;5.328;2023-03-01T15:15:35;16.70;91.20
18541;DHT22;9400;50.924;5.328;2023-03-01T15:18:06;16.70;90.30
18541;DHT22;9400;50.924;5.328;2023-03-01T15:20:41;16.20;90.20
18541;DHT22;9400;50.924;5.328;2023-03-01T15:23:22;15.60;90.60
18541;DHT22;9400;50.924;5.328;2023-03-01T15:25:50;16.10;90.00
18541;DHT22;9400;50.924;5.328;2023-03-01T15:28:24;16.70;90.10
18541;DHT22;9400;50.924;5.328;2023-03-01T15:30:58;15.20;90.40
18541;DHT22;9400;50.924;5.328;2023-03-01T15:33:34;15.90;90.50
18541;DHT22;9400;50.924;5.328;2023-03-01T15:36:04;14.20;89.80
18541;DHT22;9400;50.924;5.328;2023-03-01T15:38:52;11.60;90.70
18541;DHT22;9400;50.924;5.328;2023-03-01T15:41:27;10.60;91.40
18541;DHT22;9400;50.924;5.328;2023-03-01T15:43:57;10.30;91.90
18541;DHT22;9400;50.924;5.328;2023-03-01T15:46:29;9.90;93.10
18541;DHT22;9400;50.924;5.328;2023-03-01T15:48:59;9.50;93.70
18541;DHT22;9400;50.924;5.328;2023-03-01T15:51:33;9.40;93.90
18541;DHT22;9400;50.924;5.328;2023-03-01T15:54:04;9.40;94.40
18541;DHT22;9400;50.924;5.328;2023-03-01T15:56:33;9.30;94.50
18541;DHT22;9400;50.924;5.328;2023-03-01T15:59:02;9.40;94.60
18541;DHT22;9400;50.924;5.328;2023-03-01T16:01:32;9.70;93.90
18541;DHT22;9400;50.924;5.328;2023-03-01T16:04:01;9.60;93.50
18541;DHT22;9400;50.924;5.328;2023-03-01T16:06:29;10.20;92.20
18541;DHT22;9400;50.924;5.328;2023-03-01T16:08:57;11.30;91.70
18541;DHT22;9400;50.924;5.328;2023-03-01T16:11:25;12.70;92.20
18541;DHT22;9400;50.924;5.328;2023-03-01T16:13:53;13.10;90.80
18541;DHT22;9400;50.924;5.328;2023-03-01T16:16:21;12.70;91.10
18541;DHT22;9400;50.924;5.328;2023-03-01T16:18:50;12.20;90.40
18541;DHT22;9400;50.924;5.328;2023-03-01T16:21:21;11.90;90.90
18541;DHT22;9400;50.924;5.328;2023-03-01T16:23:49;11.80;90.40
18541;DHT22;9400;50.924;5.328;2023-03-01T16:26:17;11.70;91.00
18541;DHT22;9400;50.924;5.328;2023-03-01T16:28:46;12.00;91.10
18541;DHT22;9400;50.924;5.328;2023-03-01T16:31:18;12.20;91.20
18541;DHT22;9400;50.924;5.328;2023-03-01T16:33:46;12.50;91.50
18541;DHT22;9400;50.924;5.328;2023-03-01T16:36:18;12.50;91.20
18541;DHT22;9400;50.924;5.328;2023-03-01T16:38:49;12.00;91.00